createdAt,value
2023-04-15T00:01:24.105Z,6.06
2023-04-15T00:06:26.399Z,6.11
2023-04-15T00:11:28.952Z,6.12
2023-04-15T00:16:31.491Z,6.18
2023-04-15T00:21:49.165Z,6.14
2023-04-15T00:26:51.407Z,6.13
2023-04-15T00:31:53.595Z,6.17
2023-04-15T00:36:55.832Z,6.24
2023-04-15T00:41:58.116Z,6.27
2023-04-15T00:47:02.059Z,6.15
2023-04-15T00:52:04.462Z,6.19
2023-04-15T00:57:07.234Z,6.20
2023-04-15T01:02:09.537Z,6.12
2023-04-15T01:07:12.095Z,6.14
2023-04-15T01:12:18.486Z,6.20
2023-04-15T01:17:21.082Z,6.28
2023-04-15T01:22:24.372Z,6.23
2023-04-15T01:27:26.643Z,6.25
2023-04-15T01:32:29.334Z,6.33
2023-04-15T01:37:33.494Z,6.29
2023-04-15T01:42:36.876Z,6.31
2023-04-15T01:47:39.409Z,6.28
2023-04-15T01:52:44.309Z,6.34
2023-04-15T01:57:46.719Z,6.33
2023-04-15T02:02:49.559Z,6.26
2023-04-15T02:07:52.270Z,6.35
2023-04-15T02:12:57.320Z,6.43
2023-04-15T02:18:00.960Z,6.48
2023-04-15T02:23:03.250Z,6.50
2023-04-15T02:28:06.492Z,6.51
2023-04-15T02:33:08.733Z,6.48
2023-04-15T02:38:11.636Z,6.47
2023-04-15T02:43:13.813Z,6.58
2023-04-15T02:48:18.116Z,6.43
2023-04-15T02:53:20.850Z,6.47
2023-04-15T02:58:23.049Z,6.50
2023-04-15T03:03:25.346Z,6.54
2023-04-15T03:08:27.573Z,6.60
2023-04-15T03:13:29.782Z,6.64
2023-04-15T03:18:31.947Z,6.65
2023-04-15T03:23:34.061Z,6.69
2023-04-15T03:28:36.569Z,6.75
2023-04-15T03:33:38.729Z,6.74
2023-04-15T03:38:41.091Z,6.83
2023-04-15T03:43:43.330Z,6.79
2023-04-15T03:48:45.526Z,6.83
2023-04-15T03:53:47.724Z,6.85
2023-04-15T03:58:49.838Z,6.84
2023-04-15T04:03:52.528Z,6.90
2023-04-15T04:08:54.819Z,6.84
2023-04-15T04:13:56.922Z,6.73
2023-04-15T04:18:59.381Z,6.71
2023-04-15T04:24:01.796Z,6.69
2023-04-15T04:29:04.123Z,6.76
2023-04-15T04:34:06.640Z,6.83
2023-04-15T04:39:09.017Z,6.94
2023-04-15T04:44:11.186Z,7.05
2023-04-15T04:49:13.326Z,7.19
2023-04-15T04:54:16.244Z,7.37
2023-04-15T04:59:19.494Z,7.54
2023-04-15T05:04:21.758Z,7.80
2023-04-15T05:09:26.619Z,8.04
2023-04-15T05:14:28.745Z,8.26
2023-04-15T05:19:30.979Z,8.51
2023-04-15T05:24:33.132Z,8.74
2023-04-15T05:29:35.266Z,9.00
2023-04-15T05:34:38.718Z,9.29
2023-04-15T05:39:40.896Z,9.30
2023-04-15T05:44:43.222Z,9.29
2023-04-15T05:49:45.535Z,9.29
2023-04-15T05:54:47.712Z,8.88
2023-04-15T05:59:52.410Z,8.55
2023-04-15T06:04:54.641Z,8.73
2023-04-15T06:09:57.022Z,9.10
2023-04-15T06:15:00.513Z,8.62
2023-04-15T06:20:03.677Z,8.85
2023-04-15T06:25:08.211Z,9.17
2023-04-15T06:30:10.819Z,9.57
2023-04-15T06:35:13.034Z,9.71
2023-04-15T06:40:15.354Z,9.63
2023-04-15T06:45:18.838Z,9.90
2023-04-15T06:50:21.001Z,10.30
2023-04-15T06:55:23.256Z,10.27
2023-04-15T07:00:25.659Z,9.58
2023-04-15T07:05:28.126Z,9.56
2023-04-15T07:10:30.705Z,9.53
2023-04-15T07:15:33.607Z,10.22
2023-04-15T07:20:36.336Z,10.85
2023-04-15T07:25:38.580Z,10.89
2023-04-15T07:30:41.664Z,11.05
2023-04-15T07:35:44.132Z,10.69
2023-04-15T07:40:46.937Z,12.04
2023-04-15T07:45:49.154Z,12.74
2023-04-15T07:50:51.682Z,12.27
2023-04-15T07:55:53.970Z,12.65
2023-04-15T08:00:56.289Z,14.34
2023-04-15T08:06:01.115Z,15.65
2023-04-15T08:11:03.308Z,15.08
2023-04-15T08:16:18.665Z,16.08
2023-04-15T08:21:21.090Z,13.50
2023-04-15T08:26:23.525Z,13.97
2023-04-15T08:31:29.896Z,13.78
2023-04-15T08:36:32.622Z,14.36
2023-04-15T08:41:41.286Z,15.03
2023-04-15T08:46:44.772Z,13.02
2023-04-15T08:51:47.743Z,13.91
2023-04-15T08:56:50.864Z,13.55
2023-04-15T09:01:53.601Z,13.16
2023-04-15T09:06:57.602Z,14.02
2023-04-15T09:12:01.646Z,15.50
2023-04-15T09:17:04.798Z,15.07
2023-04-15T09:22:07.106Z,17.24
2023-04-15T09:27:09.387Z,15.77
2023-04-15T09:32:15.684Z,13.89
2023-04-15T09:37:31.756Z,15.59
2023-04-15T09:42:34.668Z,13.70
2023-04-15T09:47:37.126Z,12.69
2023-04-15T09:52:43.976Z,14.19
2023-04-15T09:57:49.565Z,14.54
2023-04-15T10:02:52.354Z,14.55
2023-04-15T10:07:54.979Z,14.73
2023-04-15T10:12:57.356Z,13.58
2023-04-15T10:18:01.511Z,13.48
2023-04-15T10:23:04.345Z,12.69
2023-04-15T10:28:09.009Z,13.82
2023-04-15T10:33:11.586Z,13.26
2023-04-15T10:38:39.193Z,12.29
2023-04-15T10:44:25.167Z,13.06
2023-04-15T10:49:27.561Z,12.90
2023-04-15T10:54:29.657Z,13.15
2023-04-15T10:59:32.688Z,12.92
2023-04-15T11:04:54.016Z,13.29
2023-04-15T11:09:56.590Z,12.50
2023-04-15T11:14:58.857Z,12.06
2023-04-15T11:20:01.391Z,11.47
2023-04-15T11:25:04.609Z,11.53
2023-04-15T11:30:27.100Z,12.50
2023-04-15T11:35:30.705Z,12.75
2023-04-15T11:40:36.433Z,14.84
2023-04-15T11:45:53.039Z,15.85
2023-04-15T11:51:10.097Z,14.46
2023-04-15T11:56:30.809Z,14.04
2023-04-15T12:01:39.379Z,14.13
2023-04-15T12:06:41.898Z,13.86
2023-04-15T12:11:44.046Z,13.12
2023-04-15T12:16:52.659Z,14.54
2023-04-15T12:22:01.450Z,15.81
2023-04-15T12:27:09.352Z,17.01
2023-04-15T12:32:18.619Z,15.22
2023-04-15T12:37:20.988Z,12.98
2023-04-15T12:42:23.240Z,13.06
2023-04-15T12:47:25.482Z,12.57
2023-04-15T12:52:27.755Z,13.25
2023-04-15T12:57:29.958Z,12.81
2023-04-15T13:02:32.438Z,12.40
2023-04-15T13:07:34.767Z,12.02
2023-04-15T13:12:37.430Z,12.56
2023-04-15T13:17:39.668Z,12.60
2023-04-15T13:22:42.637Z,13.24
2023-04-15T13:27:44.863Z,12.51
2023-04-15T13:32:48.782Z,13.16
2023-04-15T13:37:54.305Z,12.67
2023-04-15T13:42:57.793Z,12.72
2023-04-15T13:47:59.999Z,12.41
2023-04-15T13:53:02.583Z,12.07
2023-04-15T13:58:04.810Z,12.60
2023-04-15T14:03:07.187Z,12.69
2023-04-15T14:08:09.525Z,12.47
2023-04-15T14:13:11.779Z,12.28
2023-04-15T14:18:14.084Z,12.59
2023-04-15T14:23:16.395Z,12.79
2023-04-15T14:28:18.547Z,12.87
2023-04-15T14:33:22.344Z,12.78
2023-04-15T14:38:24.527Z,12.28
2023-04-15T14:43:28.178Z,12.12
2023-04-15T14:48:32.121Z,11.93
2023-04-15T14:53:35.455Z,12.02
2023-04-15T14:58:37.964Z,12.07
2023-04-15T15:03:40.472Z,12.32
2023-04-15T15:08:45.870Z,12.30
2023-04-15T15:13:49.765Z,12.09
2023-04-15T15:18:52.114Z,11.99
2023-04-15T15:23:54.523Z,11.86
2023-04-15T15:28:56.715Z,11.87
2023-04-15T15:33:58.878Z,11.90
2023-04-15T15:39:00.996Z,11.70
2023-04-15T15:44:04.369Z,11.71
2023-04-15T15:49:07.393Z,11.76
2023-04-15T15:54:09.564Z,11.76
2023-04-15T15:59:11.726Z,11.50
2023-04-15T16:04:14.022Z,11.51
2023-04-15T16:09:16.906Z,11.65
2023-04-15T16:14:22.167Z,11.39
2023-04-15T16:19:24.316Z,11.15
2023-04-15T16:24:27.560Z,10.95
2023-04-15T16:29:29.703Z,10.55
2023-04-15T16:34:32.449Z,10.34
2023-04-15T16:39:34.782Z,10.20
2023-04-15T16:44:37.106Z,10.19
2023-04-15T16:49:39.390Z,10.27
2023-04-15T16:54:41.665Z,10.38
2023-04-15T16:59:43.806Z,10.35
2023-04-15T17:04:45.969Z,10.32
2023-04-15T17:09:48.078Z,10.30
2023-04-15T17:14:50.252Z,10.18
2023-04-15T17:19:52.495Z,10.03
2023-04-15T17:24:54.724Z,9.91
2023-04-15T17:29:57.576Z,9.85
2023-04-15T17:35:06.038Z,9.77
2023-04-15T17:40:09.049Z,9.62
2023-04-15T17:45:11.570Z,9.69
2023-04-15T17:50:13.761Z,9.52
2023-04-15T17:55:15.982Z,9.40
2023-04-15T18:00:18.361Z,9.27
2023-04-15T18:05:20.932Z,9.25
2023-04-15T18:10:24.097Z,9.15
2023-04-15T18:15:26.462Z,9.05
2023-04-15T18:20:29.189Z,9.07
2023-04-15T18:25:32.082Z,9.07
2023-04-15T18:30:34.234Z,8.95
2023-04-15T18:35:36.728Z,8.82
2023-04-15T18:40:38.920Z,8.66
2023-04-15T18:45:41.281Z,8.55
2023-04-15T18:50:43.650Z,8.45
2023-04-15T18:55:45.840Z,8.29
2023-04-15T19:00:48.057Z,8.13
2023-04-15T19:05:50.650Z,7.99
2023-04-15T19:10:53.397Z,7.97
2023-04-15T19:15:55.548Z,7.91
2023-04-15T19:20:57.909Z,7.89
2023-04-15T19:26:02.147Z,7.87
2023-04-15T19:31:04.613Z,7.91
2023-04-15T19:36:07.860Z,7.97
2023-04-15T19:41:11.079Z,8.07
2023-04-15T19:46:13.529Z,8.21
2023-04-15T19:51:15.910Z,8.18
2023-04-15T19:56:18.054Z,8.14
2023-04-15T20:01:21.035Z,8.22
2023-04-15T20:06:23.414Z,8.27
2023-04-15T20:12:09.929Z,8.28
2023-04-15T20:16:51.532Z,8.38
2023-04-15T20:21:54.444Z,8.50
2023-04-15T20:26:57.675Z,8.51
2023-04-15T20:31:59.806Z,8.51
2023-04-15T20:37:02.162Z,8.50
2023-04-15T20:42:10.883Z,8.52
2023-04-15T20:47:13.921Z,8.53
2023-04-15T20:52:16.406Z,8.55
2023-04-15T20:57:20.305Z,8.55
2023-04-15T21:02:23.760Z,8.57
2023-04-15T21:07:26.211Z,8.53
2023-04-15T21:12:31.329Z,8.48
2023-04-15T21:17:35.362Z,8.39
2023-04-15T21:22:37.687Z,8.28
2023-04-15T21:27:39.828Z,8.15
2023-04-15T21:32:42.011Z,8.08
2023-04-15T21:37:44.222Z,7.96
2023-04-15T21:42:47.496Z,7.80
2023-04-15T21:48:00.862Z,7.68
2023-04-15T21:53:09.913Z,7.63
2023-04-15T21:58:13.461Z,7.63
2023-04-15T22:03:16.613Z,7.64
2023-04-15T22:08:18.915Z,7.69
2023-04-15T22:13:21.174Z,7.67
2023-04-15T22:18:23.443Z,7.70
2023-04-15T22:23:25.585Z,7.74
2023-04-15T22:28:27.830Z,7.78
2023-04-15T22:33:30.057Z,7.81
2023-04-15T22:38:32.296Z,7.83
2023-04-15T22:43:34.456Z,7.86
2023-04-15T22:48:36.757Z,7.90
2023-04-15T22:53:38.911Z,7.96
2023-04-15T22:58:41.140Z,7.98
2023-04-15T23:03:56.077Z,7.97
2023-04-15T23:09:06.935Z,7.94
2023-04-15T23:14:09.176Z,7.92
2023-04-15T23:19:11.709Z,7.84
2023-04-15T23:24:14.173Z,7.81
2023-04-15T23:29:16.367Z,7.69
2023-04-15T23:34:18.546Z,7.64
2023-04-15T23:39:20.834Z,7.55
2023-04-15T23:44:23.383Z,7.53
2023-04-15T23:49:25.695Z,7.57
2023-04-15T23:54:27.844Z,7.37
2023-04-15T23:59:30.035Z,7.16
